Time;durP1;ratioP1;P1;durP2;ratioP2;P2;SDS_P1;SDS_P2;PMS_P1;PMS_P2;Temp;Humidity;BMP_temperature;BMP_pressure;BME280_temperature;BME280_humidity;BME280_pressure;Samples;Min_cycle;Max_cycle;Signal;HPM_P1;HPM_P2
2023/07/15 00:04:31;;;;;;;4.63;1.50;;;22.00;99.90;;;;;;12497489;28;20096;-36
2023/07/15 00:10:36;;;;;;;3.75;1.90;;;21.90;99.90;;;;;;12505856;28;20053;-36
2023/07/15 00:16:38;;;;;;;4.82;2.05;;;21.80;99.90;;;;;;12512995;28;20049;-36
2023/07/15 00:22:44;;;;;;;4.63;1.83;;;21.80;99.90;;;;;;12526417;28;20136;-36
2023/07/15 00:28:46;;;;;;;4.82;1.95;;;21.70;99.90;;;;;;12515725;28;20049;-36
2023/07/15 00:34:48;;;;;;;5.13;1.98;;;21.60;99.90;;;;;;12524591;28;20065;-36
2023/07/15 00:40:50;;;;;;;7.57;2.15;;;21.60;99.90;;;;;;12528254;28;20048;-35
2023/07/15 00:47:29;;;;;;;6.15;1.95;;;21.60;99.90;;;;;;12519151;28;20074;-36
2023/07/15 00:53:32;;;;;;;7.05;1.90;;;21.60;99.90;;;;;;12522233;28;20519;-35
2023/07/15 00:59:36;;;;;;;4.70;1.73;;;21.60;99.90;;;;;;12523254;28;20480;-36
2023/07/15 01:05:38;;;;;;;5.55;1.70;;;21.50;99.90;;;;;;12508175;28;20147;-36
2023/07/15 01:11:40;;;;;;;4.72;2.10;;;21.40;99.90;;;;;;12523611;28;20053;-35
2023/07/15 01:17:44;;;;;;;;;;;21.40;99.90;;;;;;12516303;28;20406;-35
2023/07/15 01:23:46;;;;;;;4.60;1.80;;;21.50;99.90;;;;;;12516167;28;20391;-35
2023/07/15 01:29:48;;;;;;;4.55;1.90;;;21.50;99.90;;;;;;12526228;28;20052;-35
2023/07/15 01:35:50;;;;;;;4.00;2.00;;;21.50;99.90;;;;;;12512549;28;20528;-35
2023/07/15 01:41:52;;;;;;;5.53;1.85;;;21.50;99.90;;;;;;12522526;28;20449;-34
2023/07/15 01:47:54;;;;;;;6.47;1.98;;;21.40;99.90;;;;;;12528061;28;20057;-35
2023/07/15 01:53:56;;;;;;;4.00;1.85;;;21.50;99.90;;;;;;12509970;28;20045;-35
2023/07/15 01:59:58;;;;;;;5.50;2.20;;;21.50;99.90;;;;;;12522471;28;20049;-35
2023/07/15 02:06:00;;;;;;;5.50;1.90;;;21.50;99.90;;;;;;12506344;28;20041;-36
2023/07/15 02:12:02;;;;;;;3.78;2.00;;;21.50;99.90;;;;;;12515289;28;20054;-36
2023/07/15 02:18:04;;;;;;;10.52;2.42;;;21.40;99.90;;;;;;12517068;28;20053;-35
2023/07/15 02:24:06;;;;;;;4.35;1.58;;;21.30;99.90;;;;;;12526351;28;20060;-36
2023/07/15 02:30:09;;;;;;;5.25;1.80;;;21.30;99.90;;;;;;12522489;28;20067;-35
2023/07/15 02:36:11;;;;;;;4.93;1.80;;;21.30;99.90;;;;;;12481778;28;20151;-35
2023/07/15 02:42:14;;;;;;;4.97;1.90;;;21.20;99.90;;;;;;12508550;28;20049;-35
2023/07/15 02:48:16;;;;;;;4.53;1.70;;;21.10;99.90;;;;;;12493857;28;20327;-35
2023/07/15 02:54:17;;;;;;;5.05;1.65;;;21.10;99.90;;;;;;12511599;28;20539;-36
2023/07/15 03:00:19;;;;;;;4.88;1.80;;;21.10;99.90;;;;;;12501196;28;20077;-35
2023/07/15 03:06:21;;;;;;;3.35;1.63;;;21.10;99.90;;;;;;12508181;28;20040;-35
2023/07/15 03:12:23;;;;;;;3.22;1.60;;;21.10;99.90;;;;;;12506324;28;20053;-36
2023/07/15 03:18:26;;;;;;;3.28;1.58;;;21.00;99.90;;;;;;12514136;28;20057;-36
2023/07/15 03:24:29;;;;;;;5.35;1.42;;;21.00;99.90;;;;;;12498223;28;20040;-35
2023/07/15 03:30:31;;;;;;;2.97;1.60;;;21.00;99.90;;;;;;12514945;28;20080;-34
2023/07/15 03:36:33;;;;;;;4.57;1.75;;;21.00;99.90;;;;;;12528032;28;20060;-35
2023/07/15 03:42:35;;;;;;;7.00;1.50;;;21.10;99.90;;;;;;12509151;28;20064;-36
2023/07/15 03:48:37;;;;;;;8.63;1.80;;;21.10;99.90;;;;;;12522927;28;20049;-35
2023/07/15 03:54:39;;;;;;;3.05;1.55;;;21.20;99.90;;;;;;12512049;28;20044;-35
2023/07/15 04:00:41;;;;;;;4.53;1.92;;;21.30;99.90;;;;;;12510434;28;20041;-35
2023/07/15 04:06:43;;;;;;;6.78;2.10;;;21.40;99.90;;;;;;12508134;28;20245;-36
2023/07/15 04:12:45;;;;;;;5.47;1.73;;;21.40;99.90;;;;;;12497502;28;20061;-35
2023/07/15 04:18:47;;;;;;;5.88;1.75;;;22.00;99.90;;;;;;12513238;28;20515;-36
2023/07/15 04:24:49;;;;;;;3.75;1.48;;;22.40;99.90;;;;;;12493969;28;20794;-36
2023/07/15 04:30:51;;;;;;;2.80;1.30;;;22.30;99.90;;;;;;12519080;28;20504;-36
2023/07/15 04:36:53;;;;;;;2.95;1.55;;;22.70;99.90;;;;;;12492011;28;20037;-35
2023/07/15 04:42:55;;;;;;;4.35;1.50;;;22.90;99.90;;;;;;12509413;28;20055;-35
2023/07/15 04:48:57;;;;;;;3.92;1.80;;;23.10;99.90;;;;;;12525826;28;20137;-36
2023/07/15 04:54:59;;;;;;;5.83;1.40;;;23.00;99.90;;;;;;12524831;28;20056;-35
2023/07/15 05:01:01;;;;;;;4.57;1.65;;;23.30;99.90;;;;;;12489970;28;20095;-36
2023/07/15 05:07:04;;;;;;;5.72;1.70;;;23.30;99.90;;;;;;12497772;28;20191;-36
2023/07/15 05:13:07;;;;;;;3.58;1.70;;;22.80;99.90;;;;;;12515138;28;20072;-36
2023/07/15 05:19:09;;;;;;;5.20;1.60;;;22.60;99.90;;;;;;12519529;28;20401;-36
2023/07/15 05:25:12;;;;;;;5.47;2.28;;;22.40;99.90;;;;;;12512489;28;20288;-36
2023/07/15 05:31:15;;;;;;;4.32;1.73;;;22.30;99.90;;;;;;12513603;28;20056;-35
2023/07/15 05:37:18;;;;;;;3.75;1.73;;;22.30;99.90;;;;;;12507214;28;20060;-36
2023/07/15 05:43:20;;;;;;;4.80;1.80;;;22.50;99.90;;;;;;12517596;28;20060;-36
2023/07/15 05:49:21;;;;;;;3.83;1.50;;;22.80;99.90;;;;;;12505804;28;20103;-36
2023/07/15 05:55:23;;;;;;;4.70;1.83;;;22.80;99.90;;;;;;12526301;28;20077;-36
2023/07/15 06:01:25;;;;;;;4.18;1.63;;;22.80;99.90;;;;;;12497840;28;20044;-36
2023/07/15 06:07:27;;;;;;;4.00;1.50;;;22.90;99.90;;;;;;12505519;28;20508;-36
2023/07/15 06:13:29;;;;;;;3.58;1.80;;;22.90;99.90;;;;;;12516396;28;20048;-36
2023/07/15 06:19:31;;;;;;;6.15;1.50;;;23.10;99.90;;;;;;12520479;28;20583;-36
2023/07/15 06:25:33;;;;;;;3.83;1.30;;;23.20;99.90;;;;;;12505355;28;20049;-36
2023/07/15 06:31:35;;;;;;;3.13;1.60;;;23.30;99.90;;;;;;12516259;28;20044;-36
2023/07/15 06:37:37;;;;;;;2.95;1.60;;;23.50;99.90;;;;;;12513451;28;20137;-36
2023/07/15 06:43:39;;;;;;;4.60;1.30;;;23.70;99.90;;;;;;12501108;28;20137;-36
2023/07/15 06:49:41;;;;;;;5.70;1.60;;;23.80;99.90;;;;;;12508392;28;20060;-36
2023/07/15 06:55:43;;;;;;;3.42;1.70;;;24.10;99.90;;;;;;12520650;28;20045;-36
2023/07/15 07:01:45;;;;;;;3.60;1.60;;;24.40;99.90;;;;;;12513008;28;20098;-36
2023/07/15 07:07:47;;;;;;;2.70;1.30;;;24.60;99.90;;;;;;12488011;28;20140;-36
2023/07/15 07:13:49;;;;;;;8.60;1.80;;;24.60;99.90;;;;;;12521901;28;20041;-36
2023/07/15 07:19:51;;;;;;;5.28;1.83;;;24.70;99.90;;;;;;12535260;28;20048;-36
2023/07/15 07:25:54;;;;;;;4.93;1.20;;;24.90;99.90;;;;;;12488807;28;20492;-36
2023/07/15 07:31:56;;;;;;;5.95;1.83;;;24.90;99.90;;;;;;12503082;28;20473;-36
2023/07/15 07:37:58;;;;;;;4.60;1.60;;;25.00;99.90;;;;;;12513598;28;20052;-36
2023/07/15 07:43:59;;;;;;;3.67;1.40;;;25.10;99.90;;;;;;12524363;28;20045;-36
2023/07/15 07:50:01;;;;;;;2.67;1.40;;;25.30;99.90;;;;;;12507194;28;20049;-36
2023/07/15 07:56:04;;;;;;;4.47;1.60;;;25.40;99.90;;;;;;12526702;28;20075;-36
2023/07/15 08:02:06;;;;;;;4.82;1.55;;;25.60;99.90;;;;;;12484390;28;20049;-37
2023/07/15 08:08:08;;;;;;;6.05;1.52;;;25.70;99.90;;;;;;12515805;28;20048;-36
2023/07/15 08:14:10;;;;;;;2.78;1.45;;;25.80;99.90;;;;;;12504928;28;20041;-36
2023/07/15 08:20:12;;;;;;;3.60;1.70;;;26.00;99.90;;;;;;12530799;28;20107;-37
2023/07/15 08:26:14;;;;;;;6.45;1.90;;;26.10;99.90;;;;;;12538362;28;20054;-36
2023/07/15 08:32:19;;;;;;;4.43;1.75;;;26.10;99.90;;;;;;12519722;28;20060;-36
2023/07/15 08:38:21;;;;;;;4.30;1.80;;;26.30;99.90;;;;;;12526695;28;20492;-36
2023/07/15 08:44:23;;;;;;;5.35;1.60;;;26.50;99.90;;;;;;12496919;28;20084;-37
2023/07/15 08:50:31;;;;;;;5.43;1.33;;;26.60;99.90;;;;;;12518146;28;20060;-36
2023/07/15 08:56:36;;;;;;;6.85;1.73;;;26.80;99.90;;;;;;12513706;28;20052;-36
2023/07/15 09:02:39;;;;;;;5.85;1.65;;;27.20;99.90;;;;;;12519583;28;20412;-36
2023/07/15 09:08:42;;;;;;;2.63;1.60;;;27.10;99.90;;;;;;12516466;28;20393;-36
2023/07/15 09:14:46;;;;;;;4.20;1.73;;;27.00;99.90;;;;;;12514995;28;20084;-37
2023/07/15 09:21:15;;;;;;;2.97;1.40;;;26.90;99.90;;;;;;12513473;28;20385;-37
2023/07/15 09:27:17;;;;;;;2.90;1.30;;;26.90;99.90;;;;;;12509898;28;20057;-36
2023/07/15 09:33:30;;;;;;;3.37;1.40;;;27.40;99.90;;;;;;12517229;28;20106;-37
2023/07/15 09:39:32;;;;;;;3.90;1.10;;;27.60;99.90;;;;;;12486797;28;20057;-35
2023/07/15 09:45:37;;;;;;;3.00;1.20;;;27.60;99.90;;;;;;12510265;28;20504;-35
2023/07/15 09:51:39;;;;;;;5.90;1.48;;;27.70;99.90;;;;;;12532175;28;20074;-35
2023/07/15 09:57:43;;;;;;;3.30;1.30;;;27.90;99.90;;;;;;12516570;28;20044;-36
2023/07/15 10:04:17;;;;;;;8.63;1.42;;;27.80;99.90;;;;;;12527328;28;20049;-35
2023/07/15 10:10:20;;;;;;;7.35;1.50;;;27.60;99.90;;;;;;12527572;28;20118;-36
2023/07/15 10:16:22;;;;;;;4.75;1.55;;;27.60;99.90;;;;;;12514036;28;20080;-35
2023/07/15 10:22:33;;;;;;;3.83;1.30;;;27.50;99.90;;;;;;12518551;28;20194;-36
2023/07/15 10:28:38;;;;;;;7.50;1.23;;;27.20;99.90;;;;;;12519534;28;20087;-35
2023/07/15 10:34:51;;;;;;;5.47;1.60;;;26.70;99.90;;;;;;12517951;28;20068;-36
2023/07/15 10:41:04;;;;;;;4.82;1.65;;;26.20;99.90;;;;;;12502330;28;20539;-35
2023/07/15 10:47:10;;;;;;;7.10;1.85;;;25.30;99.90;;;;;;12520988;28;20052;-35
2023/07/15 10:53:22;;;;;;;2.95;1.67;;;24.20;99.90;;;;;;12510494;28;20037;-37
2023/07/15 10:59:33;;;;;;;4.10;1.77;;;23.40;99.90;;;;;;12509049;28;20191;-35
2023/07/15 11:05:35;;;;;;;2.95;1.58;;;23.10;99.90;;;;;;12501216;28;20509;-35
2023/07/15 11:11:38;;;;;;;5.88;2.10;;;22.90;99.90;;;;;;12511973;28;20045;-36
2023/07/15 11:17:41;;;;;;;7.00;2.22;;;22.50;99.90;;;;;;12505119;28;20045;-36
2023/07/15 11:23:45;;;;;;;4.90;1.83;;;22.10;99.90;;;;;;12491430;28;20049;-36
2023/07/15 11:29:57;;;;;;;5.00;1.70;;;21.50;99.90;;;;;;12531889;28;20052;-35
2023/07/15 11:35:59;;;;;;;7.10;1.77;;;21.00;99.90;;;;;;12516406;28;20429;-36
2023/07/15 11:42:01;;;;;;;5.13;2.05;;;20.90;99.90;;;;;;12493250;28;20045;-35
2023/07/15 11:48:03;;;;;;;4.05;1.85;;;20.80;99.90;;;;;;12508971;28;20409;-34
2023/07/15 11:54:13;;;;;;;3.83;1.70;;;20.80;99.90;;;;;;12526045;28;20041;-35
2023/07/15 12:00:34;;;;;;;2.97;1.60;;;20.70;99.90;;;;;;12509448;28;20060;-35
2023/07/15 12:06:52;;;;;;;3.78;1.92;;;20.70;99.90;;;;;;12489499;28;20049;-36
2023/07/15 12:12:54;;;;;;;5.15;2.20;;;20.70;99.90;;;;;;12515934;28;20053;-35
2023/07/15 12:18:57;;;;;;;5.40;1.70;;;20.50;99.90;;;;;;12506684;28;20412;-35
2023/07/15 12:24:59;;;;;;;4.97;1.77;;;20.70;99.90;;;;;;12506974;28;20453;-35
2023/07/15 12:31:01;;;;;;;4.55;1.70;;;20.80;99.90;;;;;;12532952;28;20076;-35
2023/07/15 12:37:03;;;;;;;6.15;2.05;;;21.20;99.90;;;;;;12521207;28;20056;-36
2023/07/15 12:43:05;;;;;;;2.53;1.27;;;21.60;99.90;;;;;;12522341;28;20045;-35
2023/07/15 12:49:07;;;;;;;2.22;1.50;;;21.90;99.90;;;;;;12536617;28;20523;-35
2023/07/15 12:55:10;;;;;;;2.33;1.40;;;22.30;99.90;;;;;;12525441;28;20330;-35
2023/07/15 13:01:11;;;;;;;2.83;1.25;;;22.50;99.90;;;;;;12513334;28;20060;-35
2023/07/15 13:07:13;;;;;;;4.53;1.25;;;23.00;99.90;;;;;;12495995;28;20168;-36
2023/07/15 13:13:16;;;;;;;2.63;1.50;;;23.80;99.90;;;;;;12508112;28;20079;-36
2023/07/15 13:19:18;;;;;;;5.93;1.50;;;24.20;99.90;;;;;;12510088;28;20065;-35
2023/07/15 13:25:20;;;;;;;4.40;1.40;;;24.50;99.90;;;;;;12520919;28;20048;-36
2023/07/15 13:31:22;;;;;;;2.35;1.27;;;24.30;99.90;;;;;;12501910;28;20052;-36
2023/07/15 13:37:25;;;;;;;2.60;1.63;;;24.40;99.90;;;;;;12517408;28;20413;-36
2023/07/15 13:43:27;;;;;;;3.85;1.40;;;24.70;99.90;;;;;;12497731;28;20046;-36
2023/07/15 13:49:30;;;;;;;5.13;1.50;;;25.10;99.90;;;;;;12503452;28;20217;-37
2023/07/15 13:55:32;;;;;;;2.33;1.50;;;25.40;99.90;;;;;;12529334;28;20079;-36
2023/07/15 14:01:34;;;;;;;4.15;1.90;;;25.10;99.90;;;;;;12496595;28;20045;-37
2023/07/15 14:07:36;;;;;;;3.85;1.50;;;25.10;99.90;;;;;;12506636;28;20049;-35
2023/07/15 14:13:38;;;;;;;3.00;1.73;;;25.00;99.90;;;;;;12502282;28;20406;-36
2023/07/15 14:19:40;;;;;;;7.47;3.47;;;25.00;99.90;;;;;;12504330;28;20463;-36
2023/07/15 14:25:42;;;;;;;3.90;1.80;;;25.60;99.90;;;;;;12504573;28;20469;-36
2023/07/15 14:31:44;;;;;;;3.38;2.00;;;25.20;99.90;;;;;;12514323;28;20044;-36
2023/07/15 14:37:46;;;;;;;4.78;2.10;;;24.70;99.90;;;;;;12500354;28;20406;-36
2023/07/15 14:43:49;;;;;;;2.88;1.90;;;24.30;99.90;;;;;;12515583;28;20160;-36
2023/07/15 14:49:51;;;;;;;5.23;2.13;;;24.00;99.90;;;;;;12524295;28;20076;-36
2023/07/15 14:55:53;;;;;;;3.25;2.00;;;23.70;99.90;;;;;;12518485;28;20052;-36
2023/07/15 15:01:54;;;;;;;5.20;2.60;;;23.50;99.90;;;;;;12507810;28;20072;-36
2023/07/15 15:07:56;;;;;;;5.53;2.75;;;23.10;99.90;;;;;;12489821;28;20064;-35
2023/07/15 15:13:58;;;;;;;4.05;2.35;;;22.90;99.90;;;;;;12528484;28;20463;-36
2023/07/15 15:20:01;;;;;;;5.00;2.60;;;22.70;99.90;;;;;;12509898;28;20520;-36
2023/07/15 15:26:03;;;;;;;4.60;2.65;;;22.90;99.90;;;;;;12489137;28;20041;-36
2023/07/15 15:32:05;;;;;;;3.47;2.38;;;23.50;99.90;;;;;;12511089;28;20378;-36
2023/07/15 15:38:08;;;;;;;5.60;2.20;;;24.30;99.90;;;;;;12511631;28;20075;-36
2023/07/15 15:44:11;;;;;;;4.32;2.40;;;24.40;99.90;;;;;;12504609;28;20528;-36
2023/07/15 15:50:13;;;;;;;3.10;2.25;;;24.30;99.90;;;;;;12512489;28;20504;-36
2023/07/15 15:56:14;;;;;;;3.53;2.25;;;24.30;99.90;;;;;;12519686;28;20611;-36
2023/07/15 16:02:17;;;;;;;5.80;2.10;;;24.30;99.90;;;;;;12517694;28;20053;-36
2023/07/15 16:08:19;;;;;;;4.07;2.43;;;24.30;99.90;;;;;;12523943;28;20464;-35
2023/07/15 16:14:21;;;;;;;4.15;1.90;;;24.30;99.90;;;;;;12523893;28;20776;-36
2023/07/15 16:20:23;;;;;;;4.20;2.08;;;24.20;99.90;;;;;;12520650;28;20451;-37
2023/07/15 16:26:24;;;;;;;3.42;2.10;;;24.30;99.90;;;;;;12502310;28;20052;-36
2023/07/15 16:32:26;;;;;;;3.63;2.35;;;24.30;99.90;;;;;;12513221;28;20103;-36
2023/07/15 16:38:29;;;;;;;4.17;2.07;;;24.30;99.90;;;;;;12510041;28;20053;-35
2023/07/15 16:44:31;;;;;;;4.72;2.10;;;24.30;99.90;;;;;;12502805;28;20046;-36
2023/07/15 16:50:32;;;;;;;3.10;1.90;;;24.50;99.90;;;;;;12478905;28;20057;-36
2023/07/15 16:56:34;;;;;;;3.03;1.90;;;25.00;99.90;;;;;;12526052;28;20088;-37
2023/07/15 17:02:36;;;;;;;2.80;2.00;;;25.00;99.90;;;;;;12501222;28;20179;-36
2023/07/15 17:08:38;;;;;;;4.30;2.17;;;25.00;99.90;;;;;;12501402;28;20049;-37
2023/07/15 17:14:41;;;;;;;6.40;2.45;;;25.10;99.90;;;;;;12523318;28;20485;-37
2023/07/15 17:20:43;;;;;;;3.25;2.03;;;25.40;99.90;;;;;;12512646;28;20138;-36
2023/07/15 17:26:45;;;;;;;4.88;2.15;;;25.40;99.90;;;;;;12509828;28;20116;-36
2023/07/15 17:32:47;;;;;;;3.13;2.08;;;25.60;99.90;;;;;;12513941;28;20114;-36
2023/07/15 17:38:49;;;;;;;3.73;2.10;;;25.70;99.90;;;;;;12499353;28;20099;-36
2023/07/15 17:44:51;;;;;;;4.50;2.53;;;25.80;99.90;;;;;;12498533;28;20046;-37
2023/07/15 17:50:53;;;;;;;3.97;2.50;;;25.90;99.90;;;;;;12516601;28;20179;-37
2023/07/15 17:56:55;;;;;;;4.73;2.73;;;26.20;99.90;;;;;;12510611;28;20049;-38
2023/07/15 18:02:57;;;;;;;4.88;2.45;;;26.30;99.90;;;;;;12496161;28;20049;-37
2023/07/15 18:08:59;;;;;;;5.57;2.53;;;26.10;99.90;;;;;;12509737;28;20505;-37
2023/07/15 18:15:01;;;;;;;6.22;2.55;;;25.90;99.90;;;;;;12495267;28;20076;-36
2023/07/15 18:21:03;;;;;;;6.43;2.90;;;25.50;99.90;;;;;;12533081;28;20053;-36
2023/07/15 18:27:05;;;;;;;6.57;3.00;;;25.20;99.90;;;;;;12505848;28;20052;-36
2023/07/15 18:33:07;;;;;;;5.03;2.97;;;24.90;99.90;;;;;;12519529;28;20280;-36
2023/07/15 18:39:12;;;;;;;6.63;3.08;;;24.60;99.90;;;;;;12525557;28;20535;-36
2023/07/15 18:45:13;;;;;;;4.88;2.85;;;24.50;99.90;;;;;;12499952;28;20033;-36
2023/07/15 18:51:15;;;;;;;5.07;2.55;;;24.40;99.90;;;;;;12504233;28;20095;-36
2023/07/15 18:57:18;;;;;;;8.57;3.10;;;24.20;99.90;;;;;;12506591;28;20109;-35
2023/07/15 19:03:24;;;;;;;5.60;3.13;;;24.10;99.90;;;;;;12513099;28;20463;-36
2023/07/15 19:09:27;;;;;;;4.25;2.88;;;23.90;99.90;;;;;;12492217;28;20090;-35
2023/07/15 19:15:29;;;;;;;;;;;23.80;99.90;;;;;;12510477;28;20361;-35
2023/07/15 19:21:31;;;;;;;6.90;3.22;;;23.70;99.90;;;;;;12530019;28;19924;-36
2023/07/15 19:27:33;;;;;;;8.30;3.38;;;23.60;99.90;;;;;;12521787;28;20386;-36
2023/07/15 19:33:36;;;;;;;6.00;3.13;;;23.50;99.90;;;;;;12535013;28;20049;-35
2023/07/15 19:39:38;;;;;;;4.32;2.90;;;23.40;99.90;;;;;;12525841;28;20345;-36
2023/07/15 19:45:41;;;;;;;5.22;3.40;;;23.30;99.90;;;;;;12505987;28;20041;-36
2023/07/15 19:51:43;;;;;;;5.03;2.90;;;23.30;99.90;;;;;;12509514;28;20075;-36
2023/07/15 19:57:47;;;;;;;5.05;2.92;;;23.20;99.90;;;;;;12511442;28;20041;-36
2023/07/15 20:03:49;;;;;;;4.20;2.90;;;23.10;99.90;;;;;;12498572;28;20152;-35
2023/07/15 20:09:51;;;;;;;4.30;3.08;;;23.10;99.90;;;;;;12506908;28;20489;-35
2023/07/15 20:15:53;;;;;;;5.57;2.85;;;23.00;99.90;;;;;;12535882;28;20045;-35
2023/07/15 20:21:54;;;;;;;4.22;2.72;;;23.00;99.90;;;;;;12505415;28;20045;-36
2023/07/15 20:27:56;;;;;;;6.07;3.20;;;22.90;99.90;;;;;;12513817;28;20061;-35
2023/07/15 20:33:59;;;;;;;6.40;2.55;;;22.80;99.90;;;;;;12526986;28;20087;-36
2023/07/15 20:40:01;;;;;;;6.05;2.70;;;22.80;99.90;;;;;;12522172;28;20054;-36
2023/07/15 20:46:03;;;;;;;3.53;2.60;;;22.80;99.90;;;;;;12498895;28;20456;-36
2023/07/15 20:52:06;;;;;;;4.43;2.78;;;22.70;99.90;;;;;;12502651;28;20455;-35
2023/07/15 20:58:08;;;;;;;3.97;2.63;;;22.70;99.90;;;;;;12523854;28;20120;-35
2023/07/15 21:04:09;;;;;;;4.00;2.42;;;22.60;99.90;;;;;;12501167;28;20057;-35
2023/07/15 21:10:11;;;;;;;5.00;2.75;;;22.50;99.90;;;;;;12526169;28;20057;-35
2023/07/15 21:16:13;;;;;;;4.65;2.30;;;22.50;99.90;;;;;;12514652;28;20076;-35
2023/07/15 21:22:17;;;;;;;3.83;2.30;;;22.50;99.90;;;;;;12521887;28;20044;-35
2023/07/15 21:28:30;;;;;;;4.35;2.28;;;22.40;99.90;;;;;;12511772;28;20128;-36
2023/07/15 21:34:32;;;;;;;3.30;2.30;;;22.30;99.90;;;;;;12527620;28;20453;-36
2023/07/15 21:40:34;;;;;;;5.00;2.40;;;22.30;99.90;;;;;;12494436;28;20045;-35
2023/07/15 21:46:36;;;;;;;3.85;2.17;;;22.20;99.90;;;;;;12514983;28;20785;-36
2023/07/15 21:52:39;;;;;;;4.72;2.50;;;22.10;99.90;;;;;;12494667;28;20073;-35
2023/07/15 21:58:40;;;;;;;3.78;2.47;;;22.00;99.90;;;;;;12512582;28;20056;-35
2023/07/15 22:04:42;;;;;;;4.05;2.20;;;22.00;99.90;;;;;;12485123;28;20037;-35
2023/07/15 22:10:44;;;;;;;3.25;1.60;;;21.90;99.90;;;;;;12514142;28;20509;-35
2023/07/15 22:16:46;;;;;;;5.45;1.92;;;22.00;99.90;;;;;;12510464;28;20044;-35
2023/07/15 22:22:48;;;;;;;5.57;2.00;;;21.50;99.90;;;;;;12521260;28;20498;-35
2023/07/15 22:28:50;;;;;;;3.22;1.70;;;21.10;99.90;;;;;;12506035;28;20504;-36
2023/07/15 22:34:52;;;;;;;4.80;1.67;;;20.90;99.90;;;;;;12516668;28;20173;-35
2023/07/15 22:40:56;;;;;;;6.60;1.38;;;20.80;99.90;;;;;;12494702;28;20099;-35
2023/07/15 22:46:59;;;;;;;3.53;1.40;;;20.70;99.90;;;;;;12516712;28;20051;-35
2023/07/15 22:53:01;;;;;;;3.73;1.73;;;20.60;99.90;;;;;;12503933;28;20453;-35
2023/07/15 22:59:03;;;;;;;4.88;1.48;;;20.70;99.90;;;;;;12507985;28;20072;-35
2023/07/15 23:05:06;;;;;;;3.38;1.60;;;20.70;99.90;;;;;;12498569;28;20050;-36
2023/07/15 23:11:08;;;;;;;4.50;1.77;;;20.40;99.90;;;;;;12515641;28;20169;-35
2023/07/15 23:17:10;;;;;;;3.92;1.38;;;20.50;99.90;;;;;;12507629;28;20045;-35
2023/07/15 23:23:12;;;;;;;4.43;1.30;;;20.70;99.90;;;;;;12520070;28;20037;-35
2023/07/15 23:29:18;;;;;;;4.43;1.40;;;20.60;99.90;;;;;;12515390;28;20516;-35
2023/07/15 23:35:21;;;;;;;4.45;1.30;;;20.50;99.90;;;;;;12519120;28;20045;-35
2023/07/15 23:41:23;;;;;;;4.43;1.60;;;20.50;99.90;;;;;;12509790;28;20059;-35
2023/07/15 23:47:25;;;;;;;2.47;1.23;;;20.30;99.90;;;;;;12503952;28;20045;-35
2023/07/15 23:53:27;;;;;;;4.10;1.27;;;20.30;99.90;;;;;;12516543;28;20068;-35
2023/07/15 23:59:29;;;;;;;4.18;1.52;;;20.20;99.90;;;;;;12504701;28;20041;-35
